Wetterdaten: Mittwoch, 16.03.2016
Datum Zeit Auen-Temp. Temp gefhlt Luftfeuchte Luftdruck Regen Wind Richtung Richtung Sonnenschein Taupunkt Windben
16.03.2016 00:00 -2,2 C -2,6 C 90 % 1017,7 hPa 0,0 mm 5,4 km/h (1 Bft) O-NO 67 0 min -3,6 C 6,3 km/h (2 Bft)
16.03.2016 00:05 -2,2 C -2,4 C 90 % 1017,7 hPa 0,0 mm 4,2 km/h (1 Bft) SO 135 0 min -3,6 C 15,5 km/h (3 Bft)
16.03.2016 00:10 -2,2 C -2,4 C 90 % 1017,6 hPa 0,0 mm 3,3 km/h (1 Bft) O-NO 67 0 min -3,6 C 7,7 km/h (2 Bft)
16.03.2016 00:15 -2,2 C -2,7 C 90 % 1017,6 hPa 0,0 mm 6,0 km/h (2 Bft) N-NO 22 0 min -3,6 C 17,3 km/h (3 Bft)
16.03.2016 00:20 -2,2 C -2,6 C 90 % 1017,6 hPa 0,0 mm 5,1 km/h (1 Bft) NO 45 0 min -3,6 C 0,0 km/h (0 Bft)
16.03.2016 00:25 -2,2 C -2,4 C 90 % 1017,6 hPa 0,0 mm 3,9 km/h (1 Bft) N-NO 22 0 min -3,6 C 6,0 km/h (2 Bft)
16.03.2016 00:30 -2,2 C -2,4 C 90 % 1017,4 hPa 0,0 mm 3,9 km/h (1 Bft) SO 135 0 min -3,6 C 6,6 km/h (2 Bft)
16.03.2016 00:35 -2,4 C -2,4 C 86 % 1017,4 hPa 0,0 mm 3,0 km/h (1 Bft) N-NO 22 0 min -4,4 C 6,3 km/h (2 Bft)
16.03.2016 00:40 -2,4 C -2,4 C 86 % 1017,4 hPa 0,0 mm 3,3 km/h (1 Bft) SO 135 0 min -4,4 C 8,3 km/h (2 Bft)
16.03.2016 00:45 -2,4 C -2,4 C 86 % 1017,4 hPa 0,0 mm 4,2 km/h (1 Bft) O-SO 112 0 min -4,4 C 0,0 km/h (0 Bft)
16.03.2016 00:50 -2,4 C -2,6 C 86 % 1017,3 hPa 0,0 mm 4,8 km/h (1 Bft) NO 45 0 min -4,4 C 10,1 km/h (2 Bft)
16.03.2016 00:55 -2,4 C -2,5 C 86 % 1017,3 hPa 0,0 mm 3,3 km/h (1 Bft) O-NO 67 0 min -4,4 C 0,0 km/h (0 Bft)
16.03.2016 01:00 -2,4 C -2,5 C 86 % 1017,3 hPa 0,0 mm 3,3 km/h (1 Bft) O 90 0 min -4,4 C 4,5 km/h (1 Bft)
16.03.2016 01:05 -2,4 C -2,5 C 86 % 1017,3 hPa 0,0 mm 3,0 km/h (1 Bft) O 90 0 min -4,4 C 3,6 km/h (1 Bft)
16.03.2016 01:10 -2,4 C -2,5 C 86 % 1017,4 hPa 0,0 mm 3,0 km/h (1 Bft) NO 45 0 min -4,4 C 4,8 km/h (1 Bft)
16.03.2016 01:15 -2,4 C -2,5 C 86 % 1017,4 hPa 0,0 mm 3,9 km/h (1 Bft) O-NO 67 0 min -4,4 C 11,9 km/h (2 Bft)
16.03.2016 01:20 -2,4 C -2,6 C 86 % 1017,4 hPa 0,0 mm 4,8 km/h (1 Bft) O-NO 67 0 min -4,4 C 7,5 km/h (2 Bft)
16.03.2016 01:25 -2,4 C -2,8 C 86 % 1017,4 hPa 0,0 mm 5,4 km/h (1 Bft) N-NO 22 0 min -4,4 C 5,4 km/h (1 Bft)
16.03.2016 01:30 -2,4 C -2,7 C 86 % 1017,2 hPa 0,0 mm 4,8 km/h (1 Bft) O-NO 67 0 min -4,4 C 8,3 km/h (2 Bft)
16.03.2016 01:35 -2,4 C -2,9 C 90 % 1017,2 hPa 0,0 mm 6,0 km/h (2 Bft) NO 45 0 min -3,8 C 7,5 km/h (2 Bft)
16.03.2016 01:40 -2,5 C -3,0 C 86 % 1017,2 hPa 0,0 mm 6,6 km/h (2 Bft) O-SO 112 0 min -4,5 C 13,1 km/h (3 Bft)
16.03.2016 01:45 -2,5 C -2,9 C 86 % 1017,2 hPa 0,0 mm 5,7 km/h (1 Bft) NO 45 0 min -4,5 C 6,3 km/h (2 Bft)
16.03.2016 01:50 -2,5 C -3,0 C 86 % 1017,2 hPa 0,0 mm 6,6 km/h (2 Bft) O-NO 67 0 min -4,5 C 7,2 km/h (2 Bft)
16.03.2016 01:55 -2,5 C -3,1 C 86 % 1017,2 hPa 0,0 mm 7,5 km/h (2 Bft) O-NO 67 0 min -4,5 C 20,3 km/h (4 Bft)
16.03.2016 01:59 -2,5 C -3,0 C 86 % 1017,2 hPa 0,0 mm 6,9 km/h (2 Bft) W-NW 292 0 min -4,5 C 4,2 km/h (1 Bft)
16.03.2016 02:00 -2,5 C -3,0 C 86 % 1017,2 hPa 0,0 mm 6,9 km/h (2 Bft) W-NW 292 0 min -4,5 C 4,2 km/h (1 Bft)
16.03.2016 02:05 -2,5 C -3,1 C 86 % 1017,2 hPa 0,0 mm 7,5 km/h (2 Bft) O-NO 67 0 min -4,5 C 9,5 km/h (2 Bft)
16.03.2016 02:10 -2,5 C -3,2 C 90 % 1017,2 hPa 0,0 mm 7,7 km/h (2 Bft) O-SO 112 0 min -3,9 C 8,0 km/h (2 Bft)
16.03.2016 02:15 -2,5 C -3,3 C 90 % 1017,2 hPa 0,0 mm 8,6 km/h (2 Bft) O-NO 67 0 min -3,9 C 8,0 km/h (2 Bft)
16.03.2016 02:20 -2,6 C -3,2 C 86 % 1017,2 hPa 0,0 mm 7,5 km/h (2 Bft) O-NO 67 0 min -4,6 C 5,4 km/h (1 Bft)
16.03.2016 02:25 -2,5 C -3,0 C 90 % 1017,2 hPa 0,0 mm 6,0 km/h (2 Bft) NO 45 0 min -3,9 C 4,5 km/h (1 Bft)
16.03.2016 02:30 -2,5 C -3,0 C 86 % 1017,2 hPa 0,0 mm 6,6 km/h (2 Bft) NO 45 0 min -4,5 C 10,7 km/h (2 Bft)
16.03.2016 02:35 -2,5 C -2,9 C 86 % 1017,2 hPa 0,0 mm 6,3 km/h (2 Bft) N-NO 22 0 min -4,5 C 11,6 km/h (2 Bft)
16.03.2016 02:40 -2,5 C -3,0 C 86 % 1017,2 hPa 0,0 mm 6,6 km/h (2 Bft) O-NO 67 0 min -4,5 C 6,3 km/h (2 Bft)
16.03.2016 02:45 -2,5 C -3,0 C 86 % 1017,2 hPa 0,0 mm 6,9 km/h (2 Bft) NO 45 0 min -4,5 C 6,6 km/h (2 Bft)
16.03.2016 02:50 -2,5 C -3,0 C 86 % 1017,0 hPa 0,0 mm 6,6 km/h (2 Bft) S 180 0 min -4,5 C 15,5 km/h (3 Bft)
16.03.2016 02:55 -2,5 C -3,0 C 86 % 1017,0 hPa 0,0 mm 7,2 km/h (2 Bft) O-NO 67 0 min -4,5 C 8,3 km/h (2 Bft)
16.03.2016 03:00 -2,5 C -3,1 C 86 % 1017,0 hPa 0,0 mm 8,0 km/h (2 Bft) N-NO 22 0 min -4,5 C 11,3 km/h (2 Bft)
16.03.2016 03:05 -2,5 C -3,3 C 86 % 1017,0 hPa 0,0 mm 9,5 km/h (2 Bft) O-NO 67 0 min -4,5 C 24,7 km/h (4 Bft)
16.03.2016 03:10 -2,5 C -3,2 C 86 % 1016,8 hPa 0,0 mm 8,9 km/h (2 Bft) NO 45 0 min -4,5 C 7,2 km/h (2 Bft)
16.03.2016 03:15 -2,5 C -3,2 C 91 % 1016,8 hPa 0,0 mm 7,7 km/h (2 Bft) NO 45 0 min -3,8 C 10,7 km/h (2 Bft)
16.03.2016 03:20 -2,5 C -3,0 C 86 % 1016,8 hPa 0,0 mm 7,2 km/h (2 Bft) N-NO 22 0 min -4,5 C 6,0 km/h (2 Bft)
16.03.2016 03:25 -2,5 C -3,0 C 91 % 1016,8 hPa 0,0 mm 6,6 km/h (2 Bft) O-NO 67 0 min -3,8 C 25,9 km/h (4 Bft)
16.03.2016 03:30 -2,5 C -2,9 C 91 % 1016,8 hPa 0,0 mm 5,7 km/h (1 Bft) O-NO 67 0 min -3,8 C 13,1 km/h (3 Bft)
16.03.2016 03:35 -2,5 C -3,2 C 91 % 1016,8 hPa 0,0 mm 7,7 km/h (2 Bft) N-NO 22 0 min -3,8 C 13,1 km/h (3 Bft)
16.03.2016 03:40 -2,6 C -3,4 C 86 % 1016,8 hPa 0,0 mm 9,5 km/h (2 Bft) O-NO 67 0 min -4,6 C 12,5 km/h (3 Bft)
16.03.2016 03:45 -2,5 C -3,4 C 90 % 1016,8 hPa 0,0 mm 8,9 km/h (2 Bft) NO 45 0 min -3,9 C 18,2 km/h (3 Bft)
16.03.2016 03:50 -2,5 C -3,1 C 90 % 1016,5 hPa 0,0 mm 7,5 km/h (2 Bft) O-NO 67 0 min -3,9 C 7,2 km/h (2 Bft)
16.03.2016 03:55 -2,5 C -3,1 C 90 % 1016,5 hPa 0,0 mm 7,2 km/h (2 Bft) O-NO 67 0 min -3,9 C 13,7 km/h (3 Bft)
16.03.2016 04:00 -2,5 C -3,1 C 91 % 1016,5 hPa 0,0 mm 7,5 km/h (2 Bft) O 90 0 min -3,8 C 5,4 km/h (1 Bft)
16.03.2016 04:05 -2,5 C -3,2 C 91 % 1016,5 hPa 0,0 mm 8,0 km/h (2 Bft) NO 45 0 min -3,8 C 10,1 km/h (2 Bft)
16.03.2016 04:10 -2,5 C -3,2 C 86 % 1016,5 hPa 0,0 mm 8,3 km/h (2 Bft) O-NO 67 0 min -4,5 C 13,4 km/h (3 Bft)
16.03.2016 04:15 -2,5 C -3,2 C 86 % 1016,5 hPa 0,0 mm 8,9 km/h (2 Bft) N-NO 22 0 min -4,5 C 11,9 km/h (2 Bft)
16.03.2016 04:20 -2,5 C -3,2 C 86 % 1016,5 hPa 0,0 mm 8,3 km/h (2 Bft) O-SO 112 0 min -4,5 C 10,7 km/h (2 Bft)
16.03.2016 04:25 -2,5 C -3,2 C 86 % 1016,5 hPa 0,0 mm 8,9 km/h (2 Bft) O-NO 67 0 min -4,5 C 14,3 km/h (3 Bft)
16.03.2016 04:30 -2,5 C -3,2 C 86 % 1016,6 hPa 0,0 mm 8,6 km/h (2 Bft) NO 45 0 min -4,5 C 6,0 km/h (2 Bft)
16.03.2016 04:35 -2,5 C -3,2 C 86 % 1016,6 hPa 0,0 mm 8,3 km/h (2 Bft) O 90 0 min -4,5 C 8,3 km/h (2 Bft)
16.03.2016 04:40 -2,5 C -3,2 C 86 % 1016,6 hPa 0,0 mm 8,6 km/h (2 Bft) O-NO 67 0 min -4,5 C 22,1 km/h (4 Bft)
16.03.2016 04:45 -2,5 C -3,3 C 86 % 1016,6 hPa 0,0 mm 9,2 km/h (2 Bft) N-NO 22 0 min -4,5 C 27,1 km/h (4 Bft)
16.03.2016 04:50 -2,5 C -3,4 C 86 % 1016,4 hPa 0,0 mm 10,4 km/h (2 Bft) NO 45 0 min -4,5 C 15,8 km/h (3 Bft)
16.03.2016 04:55 -2,5 C -3,3 C 86 % 1016,4 hPa 0,0 mm 10,1 km/h (2 Bft) SO 135 0 min -4,5 C 30,1 km/h (5 Bft)
16.03.2016 04:59 -2,5 C -3,4 C 86 % 1016,4 hPa 0,0 mm 10,7 km/h (2 Bft) NO 45 0 min -4,5 C 11,6 km/h (2 Bft)
16.03.2016 05:01 -2,5 C -3,4 C 86 % 1016,4 hPa 0,0 mm 10,7 km/h (2 Bft) NO 45 0 min -4,5 C 11,6 km/h (2 Bft)
16.03.2016 05:05 -2,5 C -3,6 C 86 % 1016,4 hPa 0,0 mm 12,8 km/h (3 Bft) O-NO 67 0 min -4,5 C 16,4 km/h (3 Bft)
16.03.2016 05:10 -2,5 C -3,6 C 91 % 1016,4 hPa 0,0 mm 11,9 km/h (2 Bft) O-NO 67 0 min -3,8 C 14,3 km/h (3 Bft)
16.03.2016 05:15 -2,5 C -3,5 C 91 % 1016,4 hPa 0,0 mm 11,0 km/h (2 Bft) O-NO 67 0 min -3,8 C 9,8 km/h (2 Bft)
16.03.2016 05:20 -2,6 C -3,4 C 86 % 1016,4 hPa 0,0 mm 9,5 km/h (2 Bft) NO 45 0 min -4,6 C 11,3 km/h (2 Bft)
16.03.2016 05:25 -2,6 C -3,2 C 90 % 1016,4 hPa 0,0 mm 6,9 km/h (2 Bft) O-NO 67 0 min -4,0 C 5,4 km/h (1 Bft)
16.03.2016 05:30 -2,6 C -3,1 C 90 % 1016,4 hPa 0,0 mm 6,0 km/h (2 Bft) S 180 0 min -4,0 C 0,0 km/h (0 Bft)
16.03.2016 05:35 -2,6 C -3,0 C 90 % 1016,4 hPa 0,0 mm 5,4 km/h (1 Bft) O-NO 67 0 min -4,0 C 5,4 km/h (1 Bft)
16.03.2016 05:40 -2,6 C -3,1 C 90 % 1016,4 hPa 0,0 mm 6,3 km/h (2 Bft) O-NO 67 0 min -4,0 C 13,4 km/h (3 Bft)
16.03.2016 05:45 -2,6 C -3,2 C 90 % 1016,4 hPa 0,0 mm 6,6 km/h (2 Bft) W-SW 247 0 min -4,0 C 6,0 km/h (2 Bft)
16.03.2016 05:50 -2,6 C -3,2 C 90 % 1016,4 hPa 0,0 mm 6,6 km/h (2 Bft) O-NO 67 0 min -4,0 C 5,7 km/h (1 Bft)
16.03.2016 05:55 -2,6 C -3,2 C 90 % 1016,4 hPa 0,0 mm 6,9 km/h (2 Bft) O-NO 67 0 min -4,0 C 9,8 km/h (2 Bft)
16.03.2016 06:00 -2,7 C -3,3 C 90 % 1016,4 hPa 0,0 mm 6,9 km/h (2 Bft) NO 45 0 min -4,1 C 6,0 km/h (2 Bft)
16.03.2016 06:05 -2,6 C -3,3 C 90 % 1016,4 hPa 0,0 mm 7,2 km/h (2 Bft) O-NO 67 0 min -4,0 C 12,2 km/h (2 Bft)
16.03.2016 06:10 -2,7 C -3,3 C 90 % 1016,2 hPa 0,0 mm 6,6 km/h (2 Bft) O 90 0 min -4,1 C 5,4 km/h (1 Bft)
16.03.2016 06:15 -2,7 C -3,0 C 86 % 1016,2 hPa 0,0 mm 5,4 km/h (1 Bft) O-NO 67 0 min -4,7 C 7,7 km/h (2 Bft)
16.03.2016 06:20 -2,7 C -3,1 C 86 % 1016,2 hPa 0,0 mm 5,7 km/h (1 Bft) NO 45 0 min -4,7 C 13,7 km/h (3 Bft)
16.03.2016 06:25 -2,7 C -3,3 C 86 % 1016,2 hPa 0,0 mm 7,5 km/h (2 Bft) NO 45 0 min -4,7 C 13,7 km/h (3 Bft)
16.03.2016 06:30 -2,7 C -3,3 C 86 % 1016,5 hPa 0,0 mm 7,2 km/h (2 Bft) O-NO 67 0 min -4,7 C 0,0 km/h (0 Bft)
16.03.2016 06:35 -2,7 C -3,4 C 90 % 1016,5 hPa 0,0 mm 7,7 km/h (2 Bft) NO 45 0 min -4,1 C 8,9 km/h (2 Bft)
16.03.2016 06:40 -2,7 C -3,2 C 90 % 1016,5 hPa 0,0 mm 6,3 km/h (2 Bft) O-NO 67 0 min -4,1 C 10,1 km/h (2 Bft)
16.03.2016 06:45 -2,7 C -3,2 C 90 % 1016,5 hPa 0,0 mm 6,6 km/h (2 Bft) O-NO 67 0 min -4,1 C 13,4 km/h (3 Bft)
16.03.2016 06:50 -2,7 C -3,3 C 90 % 1016,5 hPa 0,0 mm 6,9 km/h (2 Bft) NO 45 0 min -4,1 C 13,4 km/h (3 Bft)
16.03.2016 06:55 -2,7 C -3,4 C 90 % 1016,5 hPa 0,0 mm 8,0 km/h (2 Bft) O-NO 67 0 min -4,1 C 17,0 km/h (3 Bft)
16.03.2016 07:00 -2,7 C -3,4 C 86 % 1016,5 hPa 0,0 mm 8,0 km/h (2 Bft) O-NO 67 0 min -4,7 C 8,3 km/h (2 Bft)
16.03.2016 07:05 -2,8 C -3,4 C 86 % 1016,5 hPa 0,0 mm 8,6 km/h (2 Bft) N-NO 22 0 min -4,8 C 15,8 km/h (3 Bft)
16.03.2016 07:10 -2,8 C -3,3 C 86 % 1016,4 hPa 0,0 mm 8,3 km/h (2 Bft) NO 45 0 min -4,8 C 12,2 km/h (2 Bft)
16.03.2016 07:15 -2,8 C -3,2 C 86 % 1016,4 hPa 0,0 mm 7,7 km/h (2 Bft) S-SO 157 0 min -4,8 C 9,8 km/h (2 Bft)
16.03.2016 07:20 -2,8 C -3,2 C 86 % 1016,4 hPa 0,0 mm 7,7 km/h (2 Bft) O-NO 67 0 min -4,8 C 14,6 km/h (3 Bft)
16.03.2016 07:25 -2,8 C -3,2 C 86 % 1016,4 hPa 0,0 mm 7,2 km/h (2 Bft) O-NO 67 0 min -4,8 C 8,0 km/h (2 Bft)
16.03.2016 07:30 -2,8 C -3,3 C 86 % 1016,6 hPa 0,0 mm 7,7 km/h (2 Bft) SO 135 0 min -4,8 C 11,3 km/h (2 Bft)
16.03.2016 07:35 -3,0 C -3,3 C 86 % 1016,6 hPa 0,0 mm 8,6 km/h (2 Bft) O-SO 112 0 min -5,0 C 5,1 km/h (1 Bft)
16.03.2016 07:40 -3,0 C -3,4 C 86 % 1016,6 hPa 0,0 mm 8,9 km/h (2 Bft) O-NO 67 0 min -5,0 C 14,0 km/h (3 Bft)
16.03.2016 07:45 -3,0 C -3,2 C 86 % 1016,6 hPa 0,0 mm 8,0 km/h (2 Bft) NO 45 0 min -5,0 C 9,8 km/h (2 Bft)
16.03.2016 07:50 -3,0 C -3,2 C 86 % 1016,8 hPa 0,0 mm 7,7 km/h (2 Bft) NO 45 0 min -5,0 C 8,0 km/h (2 Bft)
16.03.2016 07:55 -3,0 C -3,3 C 86 % 1016,8 hPa 0,0 mm 8,3 km/h (2 Bft) O-NO 67 0 min -5,0 C 8,3 km/h (2 Bft)
16.03.2016 08:00 -3,0 C -3,3 C 86 % 1016,8 hPa 0,0 mm 7,7 km/h (2 Bft) O-NO 67 0 min -5,0 C 9,5 km/h (2 Bft)
16.03.2016 08:02 -3,0 C -3,3 C 86 % 1016,8 hPa 0,0 mm 7,7 km/h (2 Bft) O-NO 67 0 min -5,0 C 9,5 km/h (2 Bft)
16.03.2016 08:05 -3,0 C -3,1 C 86 % 1016,8 hPa 0,0 mm 6,9 km/h (2 Bft) NO 45 0 min -5,0 C 9,5 km/h (2 Bft)
16.03.2016 08:10 -3,0 C -3,3 C 86 % 1016,9 hPa 0,0 mm 7,7 km/h (2 Bft) O-NO 67 0 min -5,0 C 10,4 km/h (2 Bft)
16.03.2016 08:15 -3,0 C -3,0 C 86 % 1016,9 hPa 0,0 mm 6,9 km/h (2 Bft) O-SO 112 0 min -5,0 C 8,3 km/h (2 Bft)
16.03.2016 08:20 -3,0 C -2,9 C 86 % 1016,9 hPa 0,0 mm 6,0 km/h (2 Bft) S-SW 202 0 min -5,0 C 5,4 km/h (1 Bft)
16.03.2016 08:25 -3,0 C -2,9 C 86 % 1016,9 hPa 0,0 mm 6,3 km/h (2 Bft) O 90 0 min -5,0 C 12,5 km/h (3 Bft)
16.03.2016 08:30 -2,8 C -2,8 C 86 % 1016,7 hPa 0,0 mm 6,0 km/h (2 Bft) O 90 0 min -4,8 C 11,0 km/h (2 Bft)
16.03.2016 08:35 -2,8 C -2,7 C 86 % 1016,7 hPa 0,0 mm 7,2 km/h (2 Bft) SW 225 0 min -4,8 C 18,8 km/h (3 Bft)
16.03.2016 08:40 -2,8 C -2,6 C 86 % 1016,7 hPa 0,0 mm 8,3 km/h (2 Bft) S-SO 157 0 min -4,8 C 8,6 km/h (2 Bft)
16.03.2016 08:45 -2,7 C -2,7 C 86 % 1016,7 hPa 0,0 mm 8,9 km/h (2 Bft) SO 135 0 min -4,7 C 11,3 km/h (2 Bft)
16.03.2016 08:50 -2,7 C -2,5 C 86 % 1016,9 hPa 0,0 mm 7,2 km/h (2 Bft) N-NO 22 0 min -4,7 C 6,9 km/h (2 Bft)
16.03.2016 08:55 -2,7 C -2,5 C 86 % 1016,9 hPa 0,0 mm 7,2 km/h (2 Bft) O-NO 67 0 min -4,7 C 7,5 km/h (2 Bft)
16.03.2016 09:00 -2,6 C -2,1 C 86 % 1016,9 hPa 0,0 mm 5,1 km/h (1 Bft) SW 225 0 min -4,6 C 4,5 km/h (1 Bft)
16.03.2016 09:05 -2,7 C -2,1 C 86 % 1016,9 hPa 0,0 mm 6,3 km/h (2 Bft) NO 45 0 min -4,7 C 6,9 km/h (2 Bft)
16.03.2016 09:10 -2,6 C -2,1 C 86 % 1017,3 hPa 0,0 mm 7,5 km/h (2 Bft) SO 135 0 min -4,6 C 4,2 km/h (1 Bft)
16.03.2016 09:15 -2,6 C -1,8 C 86 % 1017,3 hPa 0,0 mm 5,4 km/h (1 Bft) N-NO 22 0 min -4,6 C 14,3 km/h (3 Bft)
16.03.2016 09:20 -2,6 C -1,8 C 85 % 1017,3 hPa 0,0 mm 5,7 km/h (1 Bft) N-NO 22 0 min -4,8 C 7,2 km/h (2 Bft)
16.03.2016 09:25 -2,5 C -1,6 C 85 % 1017,3 hPa 0,0 mm 6,0 km/h (2 Bft) O-SO 112 0 min -4,7 C 6,0 km/h (2 Bft)
16.03.2016 09:30 -2,4 C -1,5 C 85 % 1017,4 hPa 0,0 mm 5,7 km/h (1 Bft) N-NO 22 0 min -4,6 C 10,7 km/h (2 Bft)
16.03.2016 09:35 -2,4 C -1,4 C 85 % 1017,4 hPa 0,0 mm 6,9 km/h (2 Bft) O-NO 67 0 min -4,6 C 12,2 km/h (2 Bft)
16.03.2016 09:40 -2,4 C -1,4 C 85 % 1017,4 hPa 0,0 mm 7,2 km/h (2 Bft) NO 45 0 min -4,6 C 5,4 km/h (1 Bft)
16.03.2016 09:45 -2,2 C -1,3 C 85 % 1017,4 hPa 0,0 mm 7,2 km/h (2 Bft) O-NO 67 0 min -4,4 C 7,7 km/h (2 Bft)
16.03.2016 09:50 -2,2 C -1,1 C 85 % 1017,9 hPa 0,0 mm 6,3 km/h (2 Bft) O-NO 67 0 min -4,4 C 4,8 km/h (1 Bft)
16.03.2016 09:55 -2,1 C -0,9 C 85 % 1017,9 hPa 0,0 mm 7,2 km/h (2 Bft) O-NO 67 0 min -4,3 C 15,8 km/h (3 Bft)
16.03.2016 10:00 -2,0 C -0,8 C 85 % 1017,9 hPa 0,0 mm 6,3 km/h (2 Bft) N-NO 22 0 min -4,2 C 6,6 km/h (2 Bft)
16.03.2016 10:05 -2,0 C -0,9 C 85 % 1017,9 hPa 0,0 mm 6,6 km/h (2 Bft) O-NO 67 0 min -4,2 C 12,5 km/h (3 Bft)
16.03.2016 10:10 -2,0 C -0,9 C 85 % 1018,3 hPa 0,0 mm 7,2 km/h (2 Bft) NO 45 0 min -4,2 C 9,5 km/h (2 Bft)
16.03.2016 10:15 -1,8 C -0,7 C 85 % 1018,3 hPa 0,0 mm 7,7 km/h (2 Bft) O-NO 67 0 min -4,0 C 11,0 km/h (2 Bft)
16.03.2016 10:20 -1,8 C -0,3 C 85 % 1018,3 hPa 0,0 mm 7,5 km/h (2 Bft) NO 45 0 min -4,0 C 14,6 km/h (3 Bft)
16.03.2016 10:25 -1,6 C 0,1 C 85 % 1018,3 hPa 0,0 mm 6,3 km/h (2 Bft) W 270 0 min -3,8 C 8,9 km/h (2 Bft)
16.03.2016 10:30 -1,6 C 0,1 C 85 % 1018,7 hPa 0,0 mm 6,6 km/h (2 Bft) SO 135 0 min -3,8 C 3,3 km/h (1 Bft)
16.03.2016 10:35 -1,2 C 1,5 C 85 % 1018,7 hPa 0,0 mm 5,1 km/h (1 Bft) NO 45 0 min -3,4 C 4,8 km/h (1 Bft)
16.03.2016 10:40 -1,0 C 2,2 C 85 % 1018,7 hPa 0,0 mm 3,0 km/h (1 Bft) O-SO 112 0 min -3,2 C 0,0 km/h (0 Bft)
16.03.2016 10:45 -1,0 C 2,6 C 84 % 1018,7 hPa 0,0 mm 3,3 km/h (1 Bft) O-SO 112 0 min -3,4 C 13,7 km/h (3 Bft)
16.03.2016 10:50 -0,7 C 2,5 C 84 % 1018,8 hPa 0,0 mm 4,5 km/h (1 Bft) O-NO 67 0 min -3,1 C 9,8 km/h (2 Bft)
16.03.2016 10:55 -0,6 C 2,5 C 84 % 1018,8 hPa 0,0 mm 6,6 km/h (2 Bft) O-NO 67 0 min -3,0 C 10,7 km/h (2 Bft)
16.03.2016 11:00 -0,7 C 2,4 C 83 % 1018,8 hPa 0,0 mm 6,9 km/h (2 Bft) O-SO 112 0 min -3,2 C 5,7 km/h (1 Bft)
16.03.2016 11:03 -0,7 C 2,4 C 83 % 1018,8 hPa 0,0 mm 6,9 km/h (2 Bft) O-SO 112 0 min -3,2 C 5,7 km/h (1 Bft)
16.03.2016 11:05 -0,2 C 3,7 C 83 % 1018,8 hPa 0,0 mm 6,3 km/h (2 Bft) O-NO 67 0 min -2,7 C 6,6 km/h (2 Bft)
16.03.2016 11:10 0,0 C 5,4 C 83 % 1019,0 hPa 0,0 mm 5,7 km/h (1 Bft) NO 45 0 min -2,5 C 9,2 km/h (2 Bft)
16.03.2016 11:15 -0,1 C 5,8 C 82 % 1019,0 hPa 0,7 mm 5,4 km/h (1 Bft) N-NW 337 5 min -2,8 C 3,0 km/h (1 Bft)
16.03.2016 11:20 -0,1 C 5,3 C 82 % 1019,0 hPa 0,0 mm 5,1 km/h (1 Bft) O-NO 67 5 min -2,8 C 5,7 km/h (1 Bft)
16.03.2016 11:25 0,3 C 5,4 C 82 % 1019,0 hPa 0,0 mm 3,6 km/h (1 Bft) NO 45 0 min -2,4 C 5,7 km/h (1 Bft)
16.03.2016 11:30 0,3 C 5,6 C 82 % 1017,1 hPa 0,0 mm 4,5 km/h (1 Bft) O-NO 67 0 min -2,4 C 11,9 km/h (2 Bft)
16.03.2016 11:35 0,3 C 5,2 C 81 % 1017,1 hPa 0,0 mm 7,5 km/h (2 Bft) O-SO 112 0 min -2,6 C 6,3 km/h (2 Bft)
16.03.2016 11:40 0,3 C 4,4 C 81 % 1017,1 hPa 0,0 mm 8,0 km/h (2 Bft) O-NO 67 0 min -2,6 C 6,0 km/h (2 Bft)
16.03.2016 11:45 1,0 C 6,1 C 81 % 1017,1 hPa 0,0 mm 6,3 km/h (2 Bft) S-SO 157 0 min -1,9 C 6,3 km/h (2 Bft)
16.03.2016 11:50 1,1 C 7,2 C 81 % 1019,8 hPa 0,0 mm 6,3 km/h (2 Bft) O-NO 67 0 min -1,8 C 9,2 km/h (2 Bft)
16.03.2016 11:55 1,4 C 7,6 C 80 % 1019,8 hPa 0,0 mm 6,3 km/h (2 Bft) SO 135 0 min -1,7 C 4,2 km/h (1 Bft)
16.03.2016 12:00 1,5 C 7,7 C 79 % 1019,8 hPa 0,0 mm 6,9 km/h (2 Bft) O 90 0 min -1,7 C 12,8 km/h (3 Bft)
16.03.2016 12:05 1,6 C 7,0 C 79 % 1019,8 hPa 0,0 mm 8,6 km/h (2 Bft) NO 45 0 min -1,6 C 11,3 km/h (2 Bft)
16.03.2016 12:10 1,4 C 5,8 C 79 % 1020,3 hPa 0,0 mm 10,7 km/h (2 Bft) O-NO 67 0 min -1,8 C 20,9 km/h (4 Bft)
16.03.2016 12:15 0,9 C 3,5 C 79 % 1020,3 hPa 0,0 mm 13,4 km/h (3 Bft) NO 45 0 min -2,3 C 19,1 km/h (3 Bft)
16.03.2016 12:20 1,1 C 3,6 C 79 % 1020,3 hPa 0,7 mm 13,7 km/h (3 Bft) O-NO 67 0 min -2,1 C 21,8 km/h (4 Bft)
16.03.2016 12:26 1,0 C 3,1 C 78 % 1020,3 hPa 0,0 mm 12,8 km/h (3 Bft) N 360 0 min -2,4 C 17,0 km/h (3 Bft)
16.03.2016 12:30 1,1 C 3,5 C 78 % 1020,1 hPa 0,0 mm 11,3 km/h (2 Bft) O 90 0 min -2,3 C 12,2 km/h (2 Bft)
16.03.2016 12:35 1,1 C 3,4 C 78 % 1020,1 hPa 0,0 mm 10,4 km/h (2 Bft) O-NO 67 0 min -2,3 C 15,5 km/h (3 Bft)
16.03.2016 12:40 1,1 C 3,4 C 78 % 1020,1 hPa 0,0 mm 10,4 km/h (2 Bft) N-NO 22 0 min -2,3 C 7,5 km/h (2 Bft)
16.03.2016 12:45 2,1 C 5,9 C 78 % 1020,1 hPa 0,0 mm 10,1 km/h (2 Bft) O-NO 67 0 min -1,3 C 9,8 km/h (2 Bft)
16.03.2016 12:50 2,3 C 6,1 C 78 % 1020,1 hPa 0,0 mm 10,7 km/h (2 Bft) O-SO 112 0 min -1,1 C 18,2 km/h (3 Bft)
16.03.2016 12:55 2,2 C 5,6 C 77 % 1020,1 hPa 0,0 mm 12,2 km/h (2 Bft) O-NO 67 0 min -1,4 C 10,7 km/h (2 Bft)
16.03.2016 13:00 2,4 C 5,9 C 76 % 1020,1 hPa 0,0 mm 14,0 km/h (3 Bft) NO 45 0 min -1,4 C 11,0 km/h (2 Bft)
16.03.2016 13:05 2,6 C 6,3 C 76 % 1020,1 hPa 0,0 mm 14,9 km/h (3 Bft) NO 45 0 min -1,2 C 17,9 km/h (3 Bft)
16.03.2016 13:10 2,7 C 6,8 C 76 % 1020,3 hPa 0,0 mm 14,3 km/h (3 Bft) N-NO 22 0 min -1,1 C 17,0 km/h (3 Bft)
16.03.2016 13:15 2,9 C 8,0 C 76 % 1020,3 hPa 0,0 mm 12,2 km/h (2 Bft) O-NO 67 0 min -0,9 C 16,1 km/h (3 Bft)
16.03.2016 13:20 2,6 C 6,7 C 75 % 1020,3 hPa 0,0 mm 12,2 km/h (2 Bft) O 90 0 min -1,4 C 9,2 km/h (2 Bft)
16.03.2016 13:25 2,4 C 5,3 C 75 % 1020,3 hPa 0,0 mm 11,6 km/h (2 Bft) O-NO 67 0 min -1,6 C 16,4 km/h (3 Bft)
16.03.2016 13:30 2,5 C 5,7 C 75 % 1020,7 hPa 0,7 mm 11,6 km/h (2 Bft) NO 45 0 min -1,5 C 13,4 km/h (3 Bft)
16.03.2016 13:35 3,2 C 7,6 C 74 % 1020,7 hPa 0,7 mm 10,7 km/h (2 Bft) NO 45 0 min -1,0 C 13,4 km/h (3 Bft)
16.03.2016 13:40 2,9 C 7,9 C 75 % 1020,7 hPa 0,0 mm 11,3 km/h (2 Bft) NO 45 0 min -1,1 C 20,6 km/h (4 Bft)
16.03.2016 13:45 2,9 C 6,9 C 75 % 1020,7 hPa 0,7 mm 11,6 km/h (2 Bft) O-SO 112 0 min -1,1 C 13,4 km/h (3 Bft)
16.03.2016 13:50 3,3 C 8,4 C 74 % 1020,7 hPa 0,7 mm 8,6 km/h (2 Bft) O 90 0 min -0,9 C 5,7 km/h (1 Bft)
16.03.2016 13:55 3,8 C 10,1 C 73 % 1020,7 hPa 0,0 mm 8,6 km/h (2 Bft) O-SO 112 5 min -0,6 C 13,7 km/h (3 Bft)
16.03.2016 14:00 3,7 C 9,4 C 73 % 1020,7 hPa 0,7 mm 10,4 km/h (2 Bft) O 90 0 min -0,7 C 10,4 km/h (2 Bft)
16.03.2016 14:03 3,7 C 9,4 C 73 % 1020,7 hPa 0,0 mm 10,4 km/h (2 Bft) O 90 0 min -0,7 C 10,4 km/h (2 Bft)
16.03.2016 14:05 3,7 C 9,0 C 73 % 1020,7 hPa 0,0 mm 13,4 km/h (3 Bft) NO 45 0 min -0,7 C 27,4 km/h (4 Bft)
16.03.2016 14:10 3,4 C 8,2 C 73 % 1020,1 hPa 0,7 mm 14,6 km/h (3 Bft) O-NO 67 0 min -1,0 C 25,6 km/h (4 Bft)
16.03.2016 14:15 3,3 C 6,8 C 73 % 1020,1 hPa 0,0 mm 15,2 km/h (3 Bft) NO 45 0 min -1,1 C 14,0 km/h (3 Bft)
16.03.2016 14:20 3,3 C 5,8 C 73 % 1020,1 hPa 0,7 mm 14,6 km/h (3 Bft) NO 45 0 min -1,1 C 20,0 km/h (4 Bft)
16.03.2016 14:25 3,4 C 6,3 C 73 % 1020,1 hPa 0,0 mm 14,0 km/h (3 Bft) NO 45 0 min -1,0 C 22,9 km/h (4 Bft)
16.03.2016 14:30 3,2 C 5,7 C 73 % 1020,5 hPa 0,0 mm 13,1 km/h (3 Bft) O-NO 67 0 min -1,2 C 13,7 km/h (3 Bft)
16.03.2016 14:35 2,7 C 4,4 C 74 % 1020,5 hPa 0,7 mm 13,7 km/h (3 Bft) O-NO 67 0 min -1,5 C 11,0 km/h (2 Bft)
16.03.2016 14:40 2,5 C 3,5 C 74 % 1020,5 hPa 0,0 mm 13,1 km/h (3 Bft) O-SO 112 0 min -1,7 C 12,8 km/h (3 Bft)
16.03.2016 14:45 2,5 C 3,4 C 75 % 1020,5 hPa 0,0 mm 10,7 km/h (2 Bft) O-SO 112 0 min -1,5 C 8,6 km/h (2 Bft)
16.03.2016 14:50 2,8 C 4,4 C 75 % 1020,4 hPa 0,0 mm 9,2 km/h (2 Bft) O-NO 67 0 min -1,2 C 16,4 km/h (3 Bft)
16.03.2016 14:55 3,3 C 6,0 C 74 % 1020,4 hPa 0,0 mm 7,7 km/h (2 Bft) O-NO 67 0 min -0,9 C 11,3 km/h (2 Bft)
16.03.2016 15:00 3,9 C 7,8 C 74 % 1020,4 hPa 0,0 mm 8,6 km/h (2 Bft) O-SO 112 0 min -0,3 C 11,9 km/h (2 Bft)
16.03.2016 15:05 4,2 C 10,2 C 73 % 1020,4 hPa 0,7 mm 8,3 km/h (2 Bft) O-SO 112 5 min -0,2 C 14,0 km/h (3 Bft)
16.03.2016 15:11 3,7 C 9,1 C 73 % 1020,1 hPa 0,0 mm 8,3 km/h (2 Bft) N 0 5 min -0,7 C 8,9 km/h (2 Bft)
16.03.2016 15:15 3,3 C 6,0 C 73 % 1020,1 hPa 0,0 mm 11,0 km/h (2 Bft) N 0 0 min -1,1 C 11,3 km/h (2 Bft)
16.03.2016 15:20 3,1 C 4,6 C 73 % 1020,1 hPa 0,0 mm 11,9 km/h (2 Bft) NO 45 0 min -1,3 C 10,7 km/h (2 Bft)
16.03.2016 15:25 3,1 C 4,4 C 74 % 1020,1 hPa 0,0 mm 11,6 km/h (2 Bft) O-NO 67 0 min -1,1 C 6,6 km/h (2 Bft)
16.03.2016 15:30 3,2 C 4,7 C 74 % 1019,9 hPa 0,0 mm 11,0 km/h (2 Bft) O-NO 67 0 min -1,0 C 11,9 km/h (2 Bft)
16.03.2016 15:35 3,2 C 4,8 C 74 % 1019,9 hPa 0,0 mm 9,2 km/h (2 Bft) O-NO 67 0 min -1,0 C 11,9 km/h (2 Bft)
16.03.2016 15:40 3,2 C 4,5 C 74 % 1019,9 hPa 0,7 mm 8,3 km/h (2 Bft) N-NW 337 0 min -1,0 C 8,6 km/h (2 Bft)
16.03.2016 15:45 3,1 C 4,3 C 75 % 1019,9 hPa 0,0 mm 7,2 km/h (2 Bft) O-NO 67 0 min -0,9 C 8,6 km/h (2 Bft)
16.03.2016 15:50 3,1 C 5,7 C 75 % 1019,9 hPa 0,0 mm 5,1 km/h (1 Bft) O-NO 67 0 min -0,9 C 10,1 km/h (2 Bft)
16.03.2016 15:55 3,3 C 7,5 C 75 % 1019,9 hPa 0,0 mm 3,0 km/h (1 Bft) O-SO 112 0 min -0,7 C 0,0 km/h (0 Bft)
16.03.2016 16:00 3,5 C 8,3 C 75 % 1019,9 hPa 0,0 mm 4,2 km/h (1 Bft) NO 45 5 min -0,5 C 4,2 km/h (1 Bft)
16.03.2016 16:05 3,7 C 8,5 C 75 % 1019,9 hPa 0,0 mm 4,8 km/h (1 Bft) O-NO 67 5 min -0,3 C 10,7 km/h (2 Bft)
16.03.2016 16:10 3,7 C 8,2 C 75 % 1019,6 hPa 0,0 mm 4,2 km/h (1 Bft) N 0 5 min -0,3 C 3,6 km/h (1 Bft)
16.03.2016 16:15 3,6 C 7,2 C 75 % 1019,6 hPa 0,0 mm 6,9 km/h (2 Bft) N 0 0 min -0,4 C 15,2 km/h (3 Bft)
16.03.2016 16:20 3,5 C 5,8 C 75 % 1019,6 hPa 0,0 mm 8,6 km/h (2 Bft) O-NO 67 0 min -0,5 C 14,0 km/h (3 Bft)
16.03.2016 16:25 3,5 C 5,1 C 75 % 1019,6 hPa 0,0 mm 9,8 km/h (2 Bft) O-NO 67 0 min -0,5 C 5,4 km/h (1 Bft)
16.03.2016 16:30 3,6 C 5,7 C 75 % 1019,9 hPa 0,0 mm 7,5 km/h (2 Bft) O-NO 67 0 min -0,4 C 3,0 km/h (1 Bft)
16.03.2016 16:35 3,5 C 6,5 C 75 % 1019,9 hPa 0,0 mm 5,4 km/h (1 Bft) O-NO 67 0 min -0,5 C 10,1 km/h (2 Bft)
16.03.2016 16:40 3,4 C 6,8 C 75 % 1019,9 hPa 0,0 mm 4,5 km/h (1 Bft) W-NW 292 5 min -0,6 C 4,2 km/h (1 Bft)
16.03.2016 16:45 3,4 C 6,8 C 76 % 1019,9 hPa 0,0 mm 3,6 km/h (1 Bft) O-SO 112 0 min -0,4 C 6,0 km/h (2 Bft)
16.03.2016 16:50 3,3 C 6,7 C 76 % 1021,2 hPa 0,0 mm 3,6 km/h (1 Bft) O 90 0 min -0,5 C 6,6 km/h (2 Bft)
16.03.2016 16:55 3,1 C 5,6 C 76 % 1021,2 hPa 0,0 mm 3,9 km/h (1 Bft) NO 45 0 min -0,7 C 15,8 km/h (3 Bft)
16.03.2016 17:00 2,9 C 4,7 C 77 % 1021,2 hPa 0,0 mm 4,2 km/h (1 Bft) NO 45 0 min -0,7 C 14,0 km/h (3 Bft)
16.03.2016 17:04 2,8 C 4,3 C 77 % 1021,2 hPa 0,0 mm 3,9 km/h (1 Bft) O-SO 112 0 min -0,8 C 8,0 km/h (2 Bft)
16.03.2016 17:05 2,8 C 4,3 C 77 % 1021,2 hPa 0,0 mm 3,9 km/h (1 Bft) O-SO 112 0 min -0,8 C 8,0 km/h (2 Bft)
16.03.2016 17:10 2,7 C 4,1 C 77 % 1019,9 hPa 0,0 mm 1,8 km/h (1 Bft) W-NW 292 0 min -0,9 C 0,0 km/h (0 Bft)
16.03.2016 17:15 2,7 C 4,2 C 77 % 1019,9 hPa 0,0 mm 0,9 km/h (0 Bft) S-SW 202 0 min -0,9 C 0,0 km/h (0 Bft)
16.03.2016 17:20 2,7 C 4,4 C 78 % 1019,9 hPa 0,0 mm 0,0 km/h (0 Bft) N-NO 22 0 min -0,7 C 0,0 km/h (0 Bft)
16.03.2016 17:25 2,6 C 4,0 C 78 % 1019,9 hPa 0,0 mm 0,0 km/h (0 Bft) O-SO 112 0 min -0,8 C 0,0 km/h (0 Bft)
16.03.2016 17:30 2,5 C 3,4 C 78 % 1019,9 hPa 0,0 mm 0,9 km/h (0 Bft) N 360 0 min -0,9 C 0,0 km/h (0 Bft)
16.03.2016 17:35 2,0 C 2,6 C 78 % 1019,9 hPa 0,0 mm 0,9 km/h (0 Bft) O-NO 67 0 min -1,4 C 5,4 km/h (1 Bft)
16.03.2016 17:40 2,0 C 2,2 C 78 % 1019,9 hPa 0,0 mm 1,2 km/h (1 Bft) S-SW 202 0 min -1,4 C 0,0 km/h (0 Bft)
16.03.2016 17:45 2,0 C 2,1 C 78 % 1019,9 hPa 0,0 mm 1,2 km/h (1 Bft) O 90 0 min -1,4 C 0,0 km/h (0 Bft)
16.03.2016 17:50 1,9 C 2,0 C 79 % 1020,1 hPa 0,0 mm 0,0 km/h (0 Bft) O-SO 112 0 min -1,3 C 0,0 km/h (0 Bft)
16.03.2016 17:55 1,9 C 1,8 C 79 % 1020,1 hPa 0,0 mm 0,3 km/h (0 Bft) S 180 0 min -1,3 C 0,0 km/h (0 Bft)
16.03.2016 18:00 1,8 C 1,6 C 79 % 1020,1 hPa 0,0 mm 0,6 km/h (0 Bft) SO 135 0 min -1,4 C 0,0 km/h (0 Bft)
16.03.2016 18:05 1,6 C 1,3 C 79 % 1020,1 hPa 0,0 mm 0,9 km/h (0 Bft) S-SO 157 0 min -1,6 C 3,3 km/h (1 Bft)
16.03.2016 18:10 1,4 C 1,0 C 79 % 1020,3 hPa 0,0 mm 0,6 km/h (0 Bft) S-SO 157 0 min -1,8 C 0,0 km/h (0 Bft)
16.03.2016 18:15 1,2 C 0,7 C 79 % 1020,3 hPa 0,0 mm 0,6 km/h (0 Bft) NW 315 0 min -2,0 C 0,0 km/h (0 Bft)
16.03.2016 18:20 1,1 C 0,6 C 79 % 1020,3 hPa 0,0 mm 0,3 km/h (0 Bft) O-SO 112 0 min -2,1 C 0,0 km/h (0 Bft)
16.03.2016 18:25 0,9 C 0,3 C 80 % 1020,3 hPa 0,0 mm 0,3 km/h (0 Bft) SO 135 0 min -2,2 C 0,0 km/h (0 Bft)
16.03.2016 18:30 0,7 C 0,1 C 81 % 1020,4 hPa 0,0 mm 0,3 km/h (0 Bft) S-SO 157 0 min -2,2 C 3,3 km/h (1 Bft)
16.03.2016 18:35 0,4 C -0,1 C 82 % 1020,4 hPa 0,0 mm 2,7 km/h (1 Bft) S 180 0 min -2,3 C 4,8 km/h (1 Bft)
16.03.2016 18:40 0,3 C -0,2 C 83 % 1020,4 hPa 0,0 mm 3,9 km/h (1 Bft) SO 135 0 min -2,2 C 5,4 km/h (1 Bft)
16.03.2016 18:45 0,2 C -0,3 C 84 % 1020,4 hPa 0,0 mm 3,0 km/h (1 Bft) S-SO 157 0 min -2,2 C 4,8 km/h (1 Bft)
16.03.2016 18:50 0,1 C -0,4 C 84 % 1020,6 hPa 0,0 mm 2,7 km/h (1 Bft) S-SO 157 0 min -2,3 C 4,2 km/h (1 Bft)
16.03.2016 18:55 0,0 C -0,5 C 85 % 1020,6 hPa 0,0 mm 2,4 km/h (1 Bft) O-SO 112 0 min -2,2 C 0,0 km/h (0 Bft)
16.03.2016 19:00 -0,4 C -0,9 C 84 % 1020,6 hPa 0,0 mm 1,2 km/h (1 Bft) O-SO 112 0 min -2,8 C 0,0 km/h (0 Bft)
16.03.2016 19:05 -0,2 C -0,8 C 85 % 1020,6 hPa 0,0 mm 0,9 km/h (0 Bft) O-SO 112 0 min -2,4 C 8,3 km/h (2 Bft)
16.03.2016 19:10 -0,2 C -0,8 C 86 % 1020,7 hPa 0,0 mm 2,4 km/h (1 Bft) S 180 0 min -2,3 C 0,0 km/h (0 Bft)
16.03.2016 19:15 -0,2 C -0,8 C 86 % 1020,7 hPa 0,0 mm 2,4 km/h (1 Bft) S-SO 157 0 min -2,3 C 0,0 km/h (0 Bft)
16.03.2016 19:20 -0,3 C -0,8 C 86 % 1020,7 hPa 0,0 mm 1,2 km/h (1 Bft) SO 135 0 min -2,3 C 3,0 km/h (1 Bft)
16.03.2016 19:25 -0,4 C -0,9 C 86 % 1020,7 hPa 0,0 mm 1,2 km/h (1 Bft) SO 135 0 min -2,4 C 0,0 km/h (0 Bft)
16.03.2016 19:30 -0,5 C -1,0 C 87 % 1021,2 hPa 0,0 mm 0,6 km/h (0 Bft) S-SO 157 0 min -2,4 C 0,0 km/h (0 Bft)
16.03.2016 19:35 -0,6 C -1,1 C 87 % 1021,2 hPa 0,0 mm 0,3 km/h (0 Bft) S-SO 157 0 min -2,5 C 0,0 km/h (0 Bft)
16.03.2016 19:40 -0,6 C -1,1 C 87 % 1021,2 hPa 0,0 mm 0,6 km/h (0 Bft) S 180 0 min -2,5 C 0,0 km/h (0 Bft)
16.03.2016 19:45 -0,7 C -1,2 C 88 % 1021,2 hPa 0,0 mm 0,6 km/h (0 Bft) S-SO 157 0 min -2,4 C 0,0 km/h (0 Bft)
16.03.2016 19:50 -0,8 C -1,3 C 88 % 1020,8 hPa 0,0 mm 0,3 km/h (0 Bft) SO 135 0 min -2,5 C 0,0 km/h (0 Bft)
16.03.2016 19:55 -1,5 C -1,9 C 88 % 1020,8 hPa 0,0 mm 0,0 km/h (0 Bft) SO 135 0 min -3,2 C 0,0 km/h (0 Bft)
16.03.2016 20:00 -1,0 C -1,6 C 88 % 1020,8 hPa 0,0 mm 0,3 km/h (0 Bft) SO 135 0 min -2,7 C 5,1 km/h (1 Bft)
16.03.2016 20:03 -0,8 C -1,3 C 89 % 1020,8 hPa 0,0 mm 1,5 km/h (1 Bft) S 180 0 min -2,4 C 3,3 km/h (1 Bft)
16.03.2016 20:05 -0,8 C -1,3 C 89 % 1020,8 hPa 0,0 mm 1,5 km/h (1 Bft) S 180 0 min -2,4 C 3,3 km/h (1 Bft)
16.03.2016 20:10 -1,5 C -1,8 C 88 % 1021,0 hPa 0,0 mm 1,5 km/h (1 Bft) W-SW 247 0 min -3,2 C 0,0 km/h (0 Bft)
16.03.2016 20:15 -1,7 C -2,1 C 88 % 1021,0 hPa 0,0 mm 0,3 km/h (0 Bft) O-SO 112 0 min -3,4 C 0,0 km/h (0 Bft)
16.03.2016 20:20 -2,0 C -2,3 C 88 % 1021,0 hPa 0,0 mm 0,0 km/h (0 Bft) W 270 0 min -3,7 C 0,0 km/h (0 Bft)
16.03.2016 20:25 -1,6 C -2,2 C 88 % 1021,0 hPa 0,0 mm 0,0 km/h (0 Bft) S-SO 157 0 min -3,3 C 0,0 km/h (0 Bft)
16.03.2016 20:30 -1,4 C -2,0 C 88 % 1020,9 hPa 0,0 mm 0,0 km/h (0 Bft) O-SO 112 0 min -3,1 C 0,0 km/h (0 Bft)
16.03.2016 20:35 -1,2 C -1,8 C 89 % 1020,9 hPa 0,0 mm 0,9 km/h (0 Bft) SO 135 0 min -2,8 C 5,7 km/h (1 Bft)
16.03.2016 20:40 -1,2 C -1,8 C 89 % 1020,9 hPa 0,0 mm 1,5 km/h (1 Bft) SO 135 0 min -2,8 C 3,0 km/h (1 Bft)
16.03.2016 20:45 -1,2 C -1,7 C 90 % 1020,9 hPa 0,0 mm 1,8 km/h (1 Bft) SO 135 0 min -2,6 C 0,0 km/h (0 Bft)
16.03.2016 20:50 -2,0 C -2,3 C 89 % 1021,1 hPa 0,0 mm 1,2 km/h (1 Bft) NW 315 0 min -3,6 C 0,0 km/h (0 Bft)
16.03.2016 20:55 -1,8 C -2,3 C 90 % 1021,1 hPa 0,0 mm 1,5 km/h (1 Bft) S-SO 157 0 min -3,2 C 5,4 km/h (1 Bft)
16.03.2016 21:00 -1,4 C -1,9 C 90 % 1021,1 hPa 0,0 mm 2,7 km/h (1 Bft) S 180 0 min -2,8 C 4,5 km/h (1 Bft)
16.03.2016 21:05 -1,3 C -1,8 C 91 % 1021,1 hPa 0,0 mm 3,3 km/h (1 Bft) S-SO 157 0 min -2,6 C 4,8 km/h (1 Bft)
16.03.2016 21:10 -1,8 C -2,1 C 91 % 1021,0 hPa 0,0 mm 2,1 km/h (1 Bft) NW 315 0 min -3,1 C 0,0 km/h (0 Bft)
16.03.2016 21:15 -2,1 C -2,4 C 90 % 1021,0 hPa 0,0 mm 0,6 km/h (0 Bft) S 180 0 min -3,5 C 3,3 km/h (1 Bft)
16.03.2016 21:20 -1,5 C -2,0 C 91 % 1021,0 hPa 0,0 mm 1,5 km/h (1 Bft) SW 225 0 min -2,8 C 0,0 km/h (0 Bft)
16.03.2016 21:25 -1,5 C -2,0 C 91 % 1021,0 hPa 0,0 mm 1,8 km/h (1 Bft) S-SO 157 0 min -2,8 C 0,0 km/h (0 Bft)
16.03.2016 21:30 -2,6 C -2,8 C 91 % 1021,1 hPa 0,0 mm 0,6 km/h (0 Bft) W-NW 292 0 min -3,9 C 0,0 km/h (0 Bft)
16.03.2016 21:35 -1,9 C -2,4 C 91 % 1021,1 hPa 0,0 mm 0,3 km/h (0 Bft) S-SO 157 0 min -3,2 C 0,0 km/h (0 Bft)
16.03.2016 21:40 -1,7 C -2,2 C 91 % 1021,1 hPa 0,0 mm 0,3 km/h (0 Bft) SW 225 0 min -3,0 C 3,0 km/h (1 Bft)
16.03.2016 21:45 -2,0 C -2,4 C 91 % 1021,1 hPa 0,0 mm 0,9 km/h (0 Bft) O-NO 67 0 min -3,3 C 0,0 km/h (0 Bft)
16.03.2016 21:50 -3,0 C -3,2 C 91 % 1021,0 hPa 0,0 mm 0,9 km/h (0 Bft) SO 135 0 min -4,3 C 0,0 km/h (0 Bft)
16.03.2016 21:55 -2,1 C -2,6 C 91 % 1021,0 hPa 0,0 mm 0,0 km/h (0 Bft) S-SO 157 0 min -3,4 C 0,0 km/h (0 Bft)
16.03.2016 22:00 -2,0 C -2,5 C 92 % 1021,0 hPa 0,0 mm 0,0 km/h (0 Bft) S 180 0 min -3,1 C 0,0 km/h (0 Bft)
16.03.2016 22:05 -3,0 C -3,2 C 91 % 1021,0 hPa 0,0 mm 0,0 km/h (0 Bft) SO 135 0 min -4,3 C 0,0 km/h (0 Bft)
16.03.2016 22:10 -3,2 C -3,5 C 91 % 1021,0 hPa 0,0 mm 0,0 km/h (0 Bft) S 180 0 min -4,5 C 0,0 km/h (0 Bft)
16.03.2016 22:15 -3,4 C -3,7 C 91 % 1021,0 hPa 0,0 mm 0,0 km/h (0 Bft) W 270 0 min -4,7 C 0,0 km/h (0 Bft)
16.03.2016 22:20 -3,5 C -3,7 C 91 % 1021,0 hPa 0,0 mm 0,0 km/h (0 Bft) SW 225 0 min -4,8 C 0,0 km/h (0 Bft)
16.03.2016 22:25 -3,3 C -3,5 C 91 % 1021,0 hPa 0,0 mm 0,0 km/h (0 Bft) NW 315 0 min -4,6 C 0,0 km/h (0 Bft)
16.03.2016 22:30 -3,5 C -3,7 C 91 % 1021,1 hPa 0,0 mm 0,0 km/h (0 Bft) W 270 0 min -4,8 C 0,0 km/h (0 Bft)
16.03.2016 22:35 -3,7 C -4,0 C 90 % 1021,1 hPa 0,0 mm 0,0 km/h (0 Bft) NW 315 0 min -5,1 C 0,0 km/h (0 Bft)
16.03.2016 22:40 -4,2 C -4,4 C 90 % 1021,1 hPa 0,0 mm 0,0 km/h (0 Bft) S 180 0 min -5,6 C 0,0 km/h (0 Bft)
16.03.2016 22:45 -3,4 C -3,9 C 85 % 1021,1 hPa 0,0 mm 0,3 km/h (0 Bft) S-SO 157 0 min -5,5 C 3,6 km/h (1 Bft)
16.03.2016 22:50 -3,0 C -3,4 C 86 % 1021,0 hPa 0,0 mm 1,5 km/h (1 Bft) W-SW 247 0 min -5,0 C 6,3 km/h (2 Bft)
16.03.2016 22:55 -3,9 C -4,1 C 90 % 1021,0 hPa 0,0 mm 2,4 km/h (1 Bft) S-SO 157 0 min -5,3 C 0,0 km/h (0 Bft)
16.03.2016 23:00 -3,6 C -3,8 C 85 % 1021,0 hPa 0,0 mm 1,8 km/h (1 Bft) SO 135 0 min -5,7 C 3,6 km/h (1 Bft)
16.03.2016 23:03 -3,2 C -3,6 C 91 % 1021,0 hPa 0,0 mm 1,5 km/h (1 Bft) NW 315 0 min -4,5 C 8,3 km/h (2 Bft)
16.03.2016 23:06 -3,2 C -3,6 C 91 % 1021,0 hPa 0,0 mm 1,5 km/h (1 Bft) NW 315 0 min -4,5 C 8,3 km/h (2 Bft)
16.03.2016 23:10 -4,2 C -4,3 C 91 % 1021,4 hPa 0,0 mm 3,0 km/h (1 Bft) W-SW 247 0 min -5,4 C 0,0 km/h (0 Bft)
16.03.2016 23:15 -3,6 C -4,0 C 91 % 1021,4 hPa 0,0 mm 1,8 km/h (1 Bft) S-SO 157 0 min -4,8 C 3,9 km/h (1 Bft)
16.03.2016 23:20 -3,2 C -3,6 C 86 % 1021,4 hPa 0,0 mm 1,2 km/h (1 Bft) S 180 0 min -5,2 C 0,0 km/h (0 Bft)
16.03.2016 23:25 -3,2 C -3,5 C 92 % 1021,4 hPa 0,0 mm 1,2 km/h (1 Bft) W-NW 292 0 min -4,3 C 0,0 km/h (0 Bft)
16.03.2016 23:30 -4,3 C -4,4 C 91 % 1021,2 hPa 0,0 mm 0,3 km/h (0 Bft) SO 135 0 min -5,5 C 0,0 km/h (0 Bft)
16.03.2016 23:35 -4,4 C -4,6 C 91 % 1021,2 hPa 0,0 mm 0,3 km/h (0 Bft) NW 315 0 min -5,6 C 0,0 km/h (0 Bft)
16.03.2016 23:40 -4,8 C -5,0 C 91 % 1021,2 hPa 0,0 mm 0,3 km/h (0 Bft) W-SW 247 0 min -6,0 C 0,0 km/h (0 Bft)
16.03.2016 23:45 -4,0 C -4,2 C 86 % 1021,2 hPa 0,0 mm 0,6 km/h (0 Bft) S-SW 202 0 min -6,0 C 3,9 km/h (1 Bft)
16.03.2016 23:50 -3,4 C -3,7 C 86 % 1021,1 hPa 0,0 mm 1,2 km/h (1 Bft) S-SO 157 0 min -5,4 C 3,0 km/h (1 Bft)
16.03.2016 23:55 -4,4 C -4,6 C 91 % 1021,1 hPa 0,0 mm 1,2 km/h (1 Bft) SO 135 0 min -5,6 C 0,0 km/h (0 Bft)
_ Min-Zeit 23:40 23:40 15:20 06:25 - 22:40 - - - 23:40 23:55
Minimum _ -4,8 C -5,0 C 73 % 1016,2 hPa - 0,0 km/h (0 Bft) - - - -6,0 C 0,0 km/h (0 Bft)
_ Max-Zeit 15:05 15:05 23:25 23:25 15:40 14:15 - - 16:40 15:05 04:55
Maximum _ 4,2 C 10,2 C 92 % 1021,4 hPa 0,7 mm 15,2 km/h
NO (3 Bft)
- - 5 min -0,2 C 30,1 km/h
SO (5 Bft)
Durchschnitt _ -0,9 C -0,1 C 84 % 1018,8 hPa #8,2 mm 5,8 km/h (2 Bft) O-NO - #45 min. -3,2 C 7,8 km/h (2 Bft)